createdAt,value
2019-01-03T00:02:14.209Z,1.38
2019-01-03T00:05:01.472Z,1.07
2019-01-03T00:07:40.696Z,1.35
2019-01-03T00:10:27.968Z,1.03
2019-01-03T00:13:10.989Z,1.34
2019-01-03T00:15:57.417Z,1.07
2019-01-03T00:18:46.064Z,0.63
2019-01-03T00:21:18.757Z,1.03
2019-01-03T00:24:02.991Z,0.72
2019-01-03T00:26:44.668Z,1.12
2019-01-03T00:29:17.148Z,1.13
2019-01-03T00:31:49.870Z,0.40
2019-01-03T00:34:28.956Z,0.64
2019-01-03T00:37:01.596Z,0.28
2019-01-03T00:39:45.634Z,0.49
2019-01-03T00:42:32.033Z,0.32
2019-01-03T00:45:02.385Z,0.28
2019-01-03T00:47:45.137Z,-0.06
2019-01-03T00:50:34.446Z,0.43
2019-01-03T00:53:16.032Z,0.32
2019-01-03T00:55:58.816Z,-0.09
2019-01-03T00:58:38.052Z,0.32
2019-01-03T01:01:10.645Z,0.02
2019-01-03T01:03:54.512Z,0.11
2019-01-03T01:06:27.169Z,-0.02
2019-01-03T01:09:18.496Z,-0.03
2019-01-03T01:12:05.793Z,-0.31
2019-01-03T01:14:48.165Z,-0.15
2019-01-03T01:17:36.500Z,-0.19
2019-01-03T01:20:23.784Z,-0.35
2019-01-03T01:23:11.124Z,-0.23
2019-01-03T01:25:59.400Z,-0.49
2019-01-03T01:28:40.564Z,-0.22
2019-01-03T01:31:13.147Z,-0.27
2019-01-03T01:34:03.380Z,-0.30
2019-01-03T01:36:47.160Z,-0.40
2019-01-03T01:39:34.436Z,-0.11
2019-01-03T01:42:19.816Z,-0.03
2019-01-03T01:45:07.124Z,-0.32
2019-01-03T01:47:45.756Z,-0.26
2019-01-03T01:50:32.123Z,-0.32
2019-01-03T01:53:04.607Z,-0.39
2019-01-03T01:55:43.325Z,-0.16
2019-01-03T01:58:28.868Z,-0.49
2019-01-03T02:01:06.036Z,-0.31
2019-01-03T02:03:52.514Z,-0.49
2019-01-03T02:06:43.768Z,-0.34
2019-01-03T02:09:16.273Z,-0.23
2019-01-03T02:12:02.638Z,-0.47
2019-01-03T02:14:35.213Z,-0.48
2019-01-03T02:17:07.750Z,-0.50
2019-01-03T02:19:40.340Z,-0.62
2019-01-03T02:22:12.854Z,-0.26
2019-01-03T02:24:58.936Z,-0.64
2019-01-03T02:27:39.871Z,-0.52
2019-01-03T02:30:12.738Z,-0.65
2019-01-03T02:33:00.142Z,-0.50
2019-01-03T02:35:40.129Z,-0.83
2019-01-03T02:38:32.395Z,-0.66
2019-01-03T02:41:21.639Z,-0.84
2019-01-03T02:44:08.037Z,-0.81
2019-01-03T02:46:54.395Z,-0.77
2019-01-03T02:49:41.716Z,-1.03
2019-01-03T02:52:24.522Z,-0.78
2019-01-03T02:55:11.780Z,-1.04
2019-01-03T02:57:59.224Z,-0.82
2019-01-03T03:00:47.584Z,-0.81
2019-01-03T03:03:31.765Z,-0.86
2019-01-03T03:06:04.402Z,-0.90
2019-01-03T03:08:50.790Z,-0.77
2019-01-03T03:11:37.300Z,-0.89
2019-01-03T03:14:09.758Z,-0.67
2019-01-03T03:16:56.126Z,-0.73
2019-01-03T03:19:33.492Z,-0.88
2019-01-03T03:22:06.004Z,-0.35
2019-01-03T03:24:56.354Z,-0.02
2019-01-03T03:27:45.785Z,-0.22
2019-01-03T03:30:18.213Z,0.31
2019-01-03T03:33:05.942Z,-0.02
2019-01-03T03:35:46.505Z,0.27
2019-01-03T03:38:32.496Z,0.29
2019-01-03T03:41:05.129Z,-0.28
2019-01-03T03:43:37.817Z,0.06
2019-01-03T03:46:24.193Z,0.16
2019-01-03T03:49:13.540Z,-0.46
2019-01-03T03:51:46.021Z,-0.28
2019-01-03T03:54:18.769Z,-0.10
2019-01-03T03:56:51.327Z,0.02
2019-01-03T03:59:37.217Z,-0.66
2019-01-03T04:02:25.564Z,-0.15
2019-01-03T04:05:08.884Z,0.06
2019-01-03T04:07:41.709Z,-0.46
2019-01-03T04:10:22.476Z,-0.18
2019-01-03T04:13:10.673Z,0.01
2019-01-03T04:15:52.163Z,-0.52
2019-01-03T04:18:37.308Z,-0.07
2019-01-03T04:21:24.615Z,0.06
2019-01-03T04:24:16.019Z,-0.69
2019-01-03T04:27:00.012Z,-0.31
2019-01-03T04:29:32.735Z,-0.39
2019-01-03T04:32:23.121Z,-1.21
2019-01-03T04:35:08.402Z,-0.69
2019-01-03T04:37:48.336Z,-0.48
2019-01-03T04:40:31.787Z,-1.25
2019-01-03T04:43:04.285Z,-1.42
2019-01-03T04:45:36.815Z,-1.68
2019-01-03T04:48:17.367Z,-1.11
2019-01-03T04:51:06.549Z,-0.76
2019-01-03T04:53:39.201Z,-0.96
2019-01-03T04:56:31.599Z,-1.45
2019-01-03T04:59:22.195Z,-0.73
2019-01-03T05:01:56.064Z,-0.58
2019-01-03T05:04:48.377Z,-1.29
2019-01-03T05:07:32.648Z,-0.65
2019-01-03T05:10:23.962Z,-0.62
2019-01-03T05:12:56.553Z,-1.13
2019-01-03T05:15:33.526Z,-0.65
2019-01-03T05:18:13.870Z,-1.18
2019-01-03T05:20:57.559Z,-1.07
2019-01-03T05:23:48.981Z,-0.99
2019-01-03T05:26:31.929Z,-1.42
2019-01-03T05:29:18.305Z,-1.20
2019-01-03T05:31:50.775Z,-1.06
2019-01-03T05:34:23.425Z,-1.40
2019-01-03T05:37:00.814Z,-0.90
2019-01-03T05:39:49.172Z,-0.80
2019-01-03T05:42:34.272Z,-1.34
2019-01-03T05:45:12.225Z,-1.10
2019-01-03T05:47:58.604Z,-0.84
2019-01-03T05:50:31.199Z,-1.19
2019-01-03T05:53:23.556Z,-1.06
2019-01-03T05:55:56.217Z,-0.69
2019-01-03T05:58:44.539Z,-1.22
2019-01-03T06:01:30.964Z,-0.83
2019-01-03T06:04:07.101Z,-0.73
2019-01-03T06:06:56.448Z,-1.09
2019-01-03T06:09:41.709Z,-0.77
2019-01-03T06:12:28.894Z,-0.65
2019-01-03T06:15:11.784Z,-0.61
2019-01-03T06:18:02.144Z,-1.18
2019-01-03T06:20:32.503Z,-0.92
2019-01-03T06:23:24.880Z,-0.68
2019-01-03T06:26:05.769Z,-1.32
2019-01-03T06:28:39.276Z,-1.20
2019-01-03T06:31:23.072Z,-0.92
2019-01-03T06:34:10.242Z,-1.40
2019-01-03T06:36:42.962Z,-0.86
2019-01-03T06:39:30.338Z,-0.72
2019-01-03T06:42:19.548Z,-1.16
2019-01-03T06:45:07.729Z,-0.64
2019-01-03T06:47:40.233Z,-0.50
2019-01-03T06:50:23.084Z,-1.28
2019-01-03T06:53:09.476Z,-1.25
2019-01-03T06:55:56.409Z,-1.37
2019-01-03T06:58:44.821Z,-1.68
2019-01-03T07:01:27.588Z,-1.19
2019-01-03T07:04:14.158Z,-1.07
2019-01-03T07:06:46.770Z,-0.84
2019-01-03T07:09:30.681Z,-1.01
2019-01-03T07:12:22.940Z,-0.77
2019-01-03T07:14:55.368Z,-0.62
2019-01-03T07:17:45.677Z,-0.79
2019-01-03T07:20:27.381Z,-0.38
2019-01-03T07:24:54.232Z,-0.65
2019-01-03T07:27:38.221Z,-0.26
2019-01-03T07:30:27.836Z,-0.44
2019-01-03T07:33:13.597Z,-0.44
2019-01-03T07:36:02.045Z,-0.05
2019-01-03T07:38:48.593Z,-0.07
2019-01-03T07:41:40.891Z,-0.65
2019-01-03T07:44:32.428Z,-0.26
2019-01-03T07:47:23.880Z,0.06
2019-01-03T07:49:56.697Z,-0.24
2019-01-03T07:52:44.684Z,0.01
2019-01-03T07:55:17.500Z,0.31
2019-01-03T07:57:50.135Z,-0.08
2019-01-03T08:00:37.461Z,0.24
2019-01-03T08:03:26.894Z,0.38
2019-01-03T08:06:12.069Z,0.14
2019-01-03T08:08:59.392Z,0.55
2019-01-03T08:11:48.748Z,0.23
2019-01-03T08:14:36.800Z,0.81
2019-01-03T08:17:26.108Z,1.14
2019-01-03T08:19:58.830Z,0.69
2019-01-03T08:22:45.145Z,1.25
2019-01-03T08:25:17.725Z,1.34
2019-01-03T08:28:02.569Z,0.78
2019-01-03T08:30:35.262Z,0.76
2019-01-03T08:33:08.033Z,0.63
2019-01-03T08:35:53.427Z,0.89
2019-01-03T08:38:38.777Z,0.95
2019-01-03T08:41:11.726Z,0.56
2019-01-03T08:43:44.390Z,0.55
2019-01-03T08:46:33.040Z,0.75
2019-01-03T08:49:14.188Z,0.32
2019-01-03T08:51:46.804Z,0.67
2019-01-03T08:54:31.591Z,0.61
2019-01-03T08:57:24.016Z,0.53
2019-01-03T09:00:06.582Z,0.89
2019-01-03T09:02:53.036Z,0.81
2019-01-03T09:05:39.489Z,0.96
2019-01-03T09:08:23.724Z,1.19
2019-01-03T09:10:56.441Z,0.69
2019-01-03T09:13:29.561Z,1.10
2019-01-03T09:16:14.149Z,1.27
2019-01-03T09:18:56.765Z,1.35
2019-01-03T09:21:29.378Z,0.82
2019-01-03T09:24:21.937Z,1.31
2019-01-03T09:27:12.412Z,1.38
2019-01-03T09:29:52.840Z,1.10
2019-01-03T09:32:41.104Z,1.72
2019-01-03T09:35:29.472Z,1.05
2019-01-03T09:38:10.708Z,1.02
2019-01-03T09:40:58.051Z,1.42
2019-01-03T09:43:40.340Z,1.52
2019-01-03T09:46:07.163Z,1.23
2019-01-03T09:48:33.996Z,1.33
2019-01-03T09:51:00.876Z,1.01
2019-01-03T09:53:27.730Z,1.51
2019-01-03T09:55:54.592Z,1.17
2019-01-03T09:58:21.432Z,1.50
2019-01-03T10:00:48.269Z,1.73
2019-01-03T10:03:15.086Z,1.42
2019-01-03T10:05:41.912Z,1.41
2019-01-03T10:08:08.733Z,1.13
2019-01-03T10:10:35.544Z,1.35
2019-01-03T10:13:02.384Z,1.10
2019-01-03T10:15:29.204Z,1.51
2019-01-03T10:17:56.007Z,1.43
2019-01-03T10:20:22.829Z,1.30
2019-01-03T10:22:49.642Z,1.33
2019-01-03T10:25:16.466Z,1.58
2019-01-03T10:27:43.281Z,1.92
2019-01-03T10:30:10.100Z,1.44
2019-01-03T10:32:36.916Z,1.58
2019-01-03T10:35:03.837Z,1.55
2019-01-03T10:37:30.649Z,2.11
2019-01-03T10:39:57.472Z,1.84
2019-01-03T10:42:24.302Z,1.92
2019-01-03T10:44:51.138Z,1.77
2019-01-03T10:47:17.961Z,1.74
2019-01-03T10:49:44.772Z,2.15
2019-01-03T10:52:11.584Z,2.13
2019-01-03T10:54:38.396Z,2.09
2019-01-03T10:57:05.225Z,2.12
2019-01-03T10:59:32.068Z,1.54
2019-01-03T11:01:58.880Z,2.08
2019-01-03T11:04:25.700Z,2.18
2019-01-03T11:06:52.509Z,2.53
2019-01-03T11:09:19.328Z,2.24
2019-01-03T11:11:46.140Z,2.53
2019-01-03T11:14:12.961Z,1.93
2019-01-03T11:16:39.785Z,2.51
2019-01-03T11:19:06.613Z,2.33
2019-01-03T11:21:33.427Z,1.81
2019-01-03T11:24:00.277Z,2.09
2019-01-03T11:26:27.089Z,1.86
2019-01-03T11:28:53.901Z,2.31
2019-01-03T11:31:20.712Z,1.83
2019-01-03T11:33:47.529Z,1.54
2019-01-03T11:36:14.353Z,1.63
2019-01-03T11:41:11.394Z,1.94
2019-01-03T11:43:38.166Z,2.01
2019-01-03T11:46:04.938Z,1.96
2019-01-03T11:48:31.671Z,1.99
2019-01-03T11:50:58.416Z,2.04
2019-01-03T11:53:25.182Z,2.42
2019-01-03T11:55:51.984Z,2.11
2019-01-03T11:58:18.721Z,2.70
2019-01-03T12:00:45.459Z,2.88
2019-01-03T12:03:12.208Z,2.74
2019-01-03T12:05:38.948Z,2.48
2019-01-03T12:08:05.702Z,2.00
2019-01-03T12:10:32.565Z,1.93
2019-01-03T12:12:59.304Z,1.65
2019-01-03T12:15:26.073Z,1.75
2019-01-03T12:17:52.812Z,2.18
2019-01-03T12:20:19.572Z,1.97
2019-01-03T12:22:46.324Z,2.52
2019-01-03T12:25:13.097Z,2.36
2019-01-03T12:27:39.816Z,2.11
2019-01-03T12:30:08.109Z,2.52
2019-01-03T12:32:34.933Z,2.69
2019-01-03T12:35:01.705Z,2.76
2019-01-03T12:37:28.456Z,2.83
2019-01-03T12:39:55.233Z,2.95
2019-01-03T12:42:22.000Z,2.66
2019-01-03T12:44:48.772Z,2.83
2019-01-03T12:47:15.508Z,3.15
2019-01-03T12:49:42.267Z,2.57
2019-01-03T12:52:09.045Z,2.78
2019-01-03T12:54:35.817Z,2.30
2019-01-03T12:57:02.573Z,2.42
2019-01-03T12:59:29.316Z,2.16
2019-01-03T13:01:56.056Z,2.22
2019-01-03T13:04:22.828Z,2.31
2019-01-03T13:06:49.574Z,2.49
2019-01-03T13:09:18.780Z,2.68
2019-01-03T13:11:46.224Z,2.73
2019-01-03T13:14:12.964Z,2.86
2019-01-03T13:16:39.692Z,2.63
2019-01-03T13:19:06.440Z,2.35
2019-01-03T13:21:33.232Z,2.13
2019-01-03T13:23:59.973Z,2.00
2019-01-03T13:26:26.740Z,2.05
2019-01-03T13:28:53.484Z,2.47
2019-01-03T13:31:20.246Z,2.28
2019-01-03T13:33:46.996Z,2.29
2019-01-03T13:36:13.761Z,2.43
2019-01-03T13:38:40.509Z,2.42
2019-01-03T13:41:07.269Z,2.31
2019-01-03T13:43:34.080Z,2.43
2019-01-03T13:46:00.839Z,2.27
2019-01-03T13:48:27.572Z,2.40
2019-01-03T13:50:54.324Z,2.26
2019-01-03T13:53:21.069Z,2.07
2019-01-03T13:55:47.832Z,2.58
2019-01-03T13:58:14.585Z,2.81
2019-01-03T14:00:41.332Z,2.04
2019-01-03T14:03:08.081Z,2.05
2019-01-03T14:05:34.841Z,2.15
2019-01-03T14:08:01.632Z,2.11
2019-01-03T14:10:28.372Z,2.29
2019-01-03T14:12:55.112Z,2.42
2019-01-03T14:15:21.890Z,2.24
2019-01-03T14:17:48.627Z,2.29
2019-01-03T14:20:15.380Z,2.31
2019-01-03T14:22:42.141Z,2.31
2019-01-03T14:25:08.892Z,2.28
2019-01-03T14:27:35.652Z,2.12
2019-01-03T14:30:02.444Z,2.73
2019-01-03T14:32:29.200Z,2.57
2019-01-03T14:34:55.945Z,2.53
2019-01-03T14:37:22.712Z,2.20
2019-01-03T14:39:49.432Z,2.03
2019-01-03T14:42:16.201Z,2.28
2019-01-03T14:44:42.935Z,2.37
2019-01-03T14:47:09.684Z,2.20
2019-01-03T14:49:36.427Z,2.05
2019-01-03T14:52:03.184Z,1.72
2019-01-03T14:54:29.940Z,1.67
2019-01-03T14:56:56.709Z,1.95
2019-01-03T14:59:23.460Z,2.09
2019-01-03T15:01:50.244Z,2.34
2019-01-03T15:04:16.996Z,2.67
2019-01-03T15:06:43.752Z,2.53
2019-01-03T15:09:10.505Z,2.77
2019-01-03T15:11:37.249Z,2.81
2019-01-03T15:14:03.988Z,2.42
2019-01-03T15:16:30.741Z,2.35
2019-01-03T15:18:57.484Z,2.45
2019-01-03T15:21:24.260Z,3.03
2019-01-03T15:23:51.006Z,2.95
2019-01-03T15:26:17.756Z,2.55
2019-01-03T15:28:44.484Z,2.37
2019-01-03T15:31:11.257Z,2.43
2019-01-03T15:33:37.987Z,2.28
2019-01-03T15:36:04.853Z,2.04
2019-01-03T15:38:31.584Z,2.13
2019-01-03T15:40:58.342Z,1.99
2019-01-03T15:43:25.080Z,2.15
2019-01-03T15:45:51.832Z,2.24
2019-01-03T15:48:18.581Z,2.14
2019-01-03T15:50:45.326Z,2.28
2019-01-03T15:53:12.080Z,2.45
2019-01-03T15:55:38.827Z,1.97
2019-01-03T15:58:05.589Z,1.84
2019-01-03T16:00:32.344Z,2.11
2019-01-03T16:02:59.108Z,2.04
2019-01-03T16:05:25.864Z,2.06
2019-01-03T16:07:52.608Z,1.84
2019-01-03T16:10:19.348Z,1.91
2019-01-03T16:12:46.114Z,1.77
2019-01-03T16:15:12.840Z,1.66
2019-01-03T16:17:39.613Z,1.84
2019-01-03T16:20:07.048Z,1.92
2019-01-03T16:22:33.801Z,1.78
2019-01-03T16:25:00.552Z,1.73
2019-01-03T16:27:27.311Z,1.86
2019-01-03T16:29:54.041Z,1.93
2019-01-03T16:32:20.799Z,2.07
2019-01-03T16:34:47.528Z,1.92
2019-01-03T16:37:14.280Z,1.93
2019-01-03T16:39:41.100Z,1.86
2019-01-03T16:42:07.854Z,2.00
2019-01-03T16:44:34.600Z,1.97
2019-01-03T16:47:01.364Z,2.11
2019-01-03T16:49:28.124Z,1.93
2019-01-03T16:51:54.887Z,2.05
2019-01-03T16:54:21.620Z,2.00
2019-01-03T16:56:48.394Z,2.02
2019-01-03T16:59:15.176Z,1.99
2019-01-03T17:01:41.937Z,1.96
2019-01-03T17:04:08.693Z,1.91
2019-01-03T17:06:35.459Z,1.90
2019-01-03T17:09:02.268Z,1.79
2019-01-03T17:11:29.016Z,1.83
2019-01-03T17:13:55.784Z,1.59
2019-01-03T17:16:22.525Z,1.72
2019-01-03T17:18:49.296Z,1.71
2019-01-03T17:21:16.028Z,2.12
2019-01-03T17:23:42.788Z,1.99
2019-01-03T17:26:09.527Z,1.98
2019-01-03T17:28:36.313Z,1.76
2019-01-03T17:31:03.044Z,1.75
2019-01-03T17:33:29.820Z,1.82
2019-01-03T17:35:56.569Z,1.70
2019-01-03T17:38:23.347Z,2.04
2019-01-03T17:40:50.088Z,2.14
2019-01-03T17:43:16.852Z,2.06
2019-01-03T17:45:43.610Z,2.01
2019-01-03T17:48:10.360Z,2.05
2019-01-03T17:50:37.112Z,2.06
2019-01-03T17:53:03.871Z,1.87
2019-01-03T17:55:30.624Z,2.11
2019-01-03T17:57:57.392Z,2.28
2019-01-03T18:00:24.133Z,2.47
2019-01-03T18:02:51.416Z,2.13
2019-01-03T18:05:18.161Z,2.09
2019-01-03T18:07:44.942Z,2.37
2019-01-03T18:10:12.345Z,2.69
2019-01-03T18:12:39.112Z,2.60
2019-01-03T18:15:06.292Z,2.71
2019-01-03T18:17:33.016Z,2.66
2019-01-03T18:19:59.792Z,2.18
2019-01-03T18:22:26.545Z,2.03
2019-01-03T18:24:53.299Z,2.14
2019-01-03T18:27:20.044Z,1.95
2019-01-03T18:29:46.809Z,1.82
2019-01-03T18:32:13.552Z,2.27
2019-01-03T18:34:40.312Z,2.22
2019-01-03T18:37:07.052Z,2.23
2019-01-03T18:39:33.833Z,2.09
2019-01-03T18:42:00.564Z,2.13
2019-01-03T18:44:27.319Z,2.04
2019-01-03T18:46:54.069Z,2.02
2019-01-03T18:49:20.845Z,2.21
2019-01-03T18:51:47.616Z,2.45
2019-01-03T18:54:14.389Z,2.19
2019-01-03T18:56:41.165Z,2.30
2019-01-03T18:59:07.961Z,2.64
2019-01-03T19:01:34.700Z,2.65
2019-01-03T19:04:01.452Z,2.41
2019-01-03T19:06:28.204Z,2.42
2019-01-03T19:08:54.964Z,2.38
2019-01-03T19:11:21.704Z,2.61
2019-01-03T19:13:48.958Z,2.36
2019-01-03T19:16:15.212Z,2.12
2019-01-03T19:18:41.956Z,2.02
2019-01-03T19:21:08.736Z,1.90
2019-01-03T19:23:35.484Z,1.90
2019-01-03T19:26:02.227Z,1.82
2019-01-03T19:28:29.020Z,1.77
2019-01-03T19:30:55.773Z,2.32
2019-01-03T19:33:22.537Z,2.30
2019-01-03T19:35:49.284Z,2.07
2019-01-03T19:38:16.040Z,2.16
2019-01-03T19:40:42.792Z,2.58
2019-01-03T19:43:09.564Z,2.30
2019-01-03T19:45:36.312Z,2.29
2019-01-03T19:48:03.065Z,2.34
2019-01-03T19:50:29.806Z,2.44
2019-01-03T19:52:56.552Z,2.40
2019-01-03T19:55:23.288Z,2.15
2019-01-03T19:57:50.060Z,2.25
2019-01-03T20:00:16.809Z,2.21
2019-01-03T20:02:43.589Z,2.56
2019-01-03T20:05:10.330Z,2.83
2019-01-03T20:07:37.121Z,2.01
2019-01-03T20:10:06.024Z,1.91
2019-01-03T20:12:32.800Z,2.03
2019-01-03T20:14:59.608Z,1.83
2019-01-03T20:17:26.368Z,2.03
2019-01-03T20:19:53.128Z,1.67
2019-01-03T20:22:19.897Z,2.19
2019-01-03T20:24:46.649Z,2.13
2019-01-03T20:27:13.440Z,2.24
2019-01-03T20:29:40.198Z,1.85
2019-01-03T20:32:06.958Z,1.83
2019-01-03T20:34:33.698Z,1.98
2019-01-03T20:37:00.444Z,1.92
2019-01-03T20:39:27.213Z,1.88
2019-01-03T20:41:53.967Z,2.16
2019-01-03T20:44:20.741Z,2.21
2019-01-03T20:46:47.501Z,2.36
2019-01-03T20:49:14.264Z,2.66
2019-01-03T20:51:40.992Z,2.57
2019-01-03T20:54:07.760Z,2.40
2019-01-03T20:56:34.586Z,1.99
2019-01-03T20:59:01.273Z,1.98
2019-01-03T21:01:28.025Z,1.97
2019-01-03T21:03:54.792Z,1.73
2019-01-03T21:06:21.542Z,2.17
2019-01-03T21:08:48.325Z,2.52
2019-01-03T21:11:15.068Z,2.49
2019-01-03T21:13:41.832Z,2.15
2019-01-03T21:16:08.581Z,2.26
2019-01-03T21:18:35.338Z,2.36
2019-01-03T21:21:02.085Z,2.10
2019-01-03T21:23:28.858Z,2.12
2019-01-03T21:25:55.725Z,2.12
2019-01-03T21:28:22.365Z,1.94
2019-01-03T21:30:49.106Z,1.92
2019-01-03T21:33:15.868Z,1.98
2019-01-03T21:35:42.624Z,2.01
2019-01-03T21:38:09.372Z,1.86
2019-01-03T21:40:36.124Z,2.32
2019-01-03T21:43:02.896Z,2.40
2019-01-03T21:45:29.656Z,2.35
2019-01-03T21:47:56.412Z,2.00
2019-01-03T21:50:23.171Z,1.89
2019-01-03T21:52:49.936Z,2.17
2019-01-03T21:55:16.683Z,2.22
2019-01-03T21:57:43.420Z,2.48
2019-01-03T22:00:11.611Z,2.19
2019-01-03T22:02:38.371Z,2.11
2019-01-03T22:05:05.163Z,2.48
2019-01-03T22:07:31.896Z,2.52
2019-01-03T22:09:58.673Z,2.52
2019-01-03T22:12:25.407Z,2.19
2019-01-03T22:14:52.176Z,1.97
2019-01-03T22:17:18.925Z,2.09
2019-01-03T22:19:45.704Z,2.19
2019-01-03T22:22:12.471Z,2.38
2019-01-03T22:24:39.236Z,2.18
2019-01-03T22:27:05.968Z,2.42
2019-01-03T22:29:32.728Z,2.28
2019-01-03T22:31:59.464Z,2.29
2019-01-03T22:34:26.229Z,2.82
2019-01-03T22:36:52.998Z,2.42
2019-01-03T22:39:19.796Z,2.96
2019-01-03T22:41:46.530Z,3.05
2019-01-03T22:44:13.289Z,3.15
2019-01-03T22:46:40.031Z,3.23
2019-01-03T22:49:06.776Z,2.36
2019-01-03T22:51:33.517Z,2.20
2019-01-03T22:54:00.408Z,2.16
2019-01-03T22:56:27.121Z,2.17
2019-01-03T22:58:53.873Z,2.15
2019-01-03T23:01:20.625Z,2.28
2019-01-03T23:03:47.378Z,2.04
2019-01-03T23:06:14.125Z,2.10
2019-01-03T23:08:40.899Z,2.26
2019-01-03T23:11:07.657Z,2.66
2019-01-03T23:13:34.412Z,2.92
2019-01-03T23:16:01.181Z,2.93
2019-01-03T23:18:31.570Z,2.50
2019-01-03T23:20:54.676Z,2.25
2019-01-03T23:23:21.413Z,2.34
2019-01-03T23:25:48.168Z,2.28
2019-01-03T23:28:14.920Z,2.22
2019-01-03T23:30:41.668Z,2.28
2019-01-03T23:33:08.417Z,2.35
2019-01-03T23:35:35.176Z,2.37
2019-01-03T23:38:01.916Z,2.22
2019-01-03T23:40:28.670Z,2.46
2019-01-03T23:42:55.421Z,2.30
2019-01-03T23:45:23.305Z,2.27
2019-01-03T23:47:56.117Z,2.54
2019-01-03T23:50:25.845Z,2.54
2019-01-03T23:52:52.593Z,2.28
2019-01-03T23:55:19.361Z,2.16
2019-01-03T23:57:46.098Z,2.13
